createdAt,value
2022-10-18T00:02:03.345Z,81.75
2022-10-18T00:04:29.802Z,81.72
2022-10-18T00:06:56.343Z,82.10
2022-10-18T00:09:22.747Z,82.12
2022-10-18T00:11:49.334Z,82.36
2022-10-18T00:14:15.877Z,82.64
2022-10-18T00:16:42.246Z,83.00
2022-10-18T00:19:08.661Z,83.94
2022-10-18T00:21:35.195Z,83.67
2022-10-18T00:24:01.744Z,84.25
2022-10-18T00:26:29.694Z,84.15
2022-10-18T00:29:02.441Z,84.03
2022-10-18T00:31:30.773Z,84.34
2022-10-18T00:33:59.807Z,84.22
2022-10-18T00:36:28.712Z,84.15
2022-10-18T00:38:55.253Z,84.17
2022-10-18T00:41:24.968Z,84.28
2022-10-18T00:43:55.041Z,84.21
2022-10-18T00:46:21.943Z,84.05
2022-10-18T00:48:48.923Z,83.98
2022-10-18T00:51:18.907Z,84.64
2022-10-18T00:53:45.746Z,84.85
2022-10-18T00:56:13.208Z,85.50
2022-10-18T00:58:40.079Z,85.79
2022-10-18T01:01:06.432Z,85.81
2022-10-18T01:03:33.152Z,85.69
2022-10-18T01:05:59.567Z,85.11
2022-10-18T01:08:45.903Z,85.31
2022-10-18T01:11:24.172Z,85.45
2022-10-18T01:13:53.471Z,85.26
2022-10-18T01:16:29.284Z,85.76
2022-10-18T01:18:58.659Z,85.99
2022-10-18T01:21:46.287Z,85.28
2022-10-18T01:24:25.621Z,85.20
2022-10-18T01:27:06.939Z,85.33
2022-10-18T01:29:33.311Z,85.18
2022-10-18T01:32:04.064Z,85.26
2022-10-18T01:34:35.656Z,85.56
2022-10-18T01:37:05.164Z,85.66
2022-10-18T01:39:36.346Z,85.59
2022-10-18T01:42:06.078Z,86.34
2022-10-18T01:44:34.858Z,86.20
2022-10-18T01:47:01.272Z,86.44
2022-10-18T01:49:27.621Z,87.04
2022-10-18T01:51:54.062Z,87.02
2022-10-18T01:54:28.723Z,87.18
2022-10-18T01:57:04.562Z,86.75
2022-10-18T01:59:53.791Z,86.47
2022-10-18T02:02:54.273Z,86.61
2022-10-18T02:05:44.598Z,86.58
2022-10-18T02:08:36.576Z,86.95
2022-10-18T02:11:05.673Z,87.05
2022-10-18T02:13:47.784Z,86.55
2022-10-18T02:16:18.989Z,86.54
2022-10-18T02:18:50.101Z,86.40
2022-10-18T02:21:19.469Z,86.53
2022-10-18T02:23:47.060Z,87.16
2022-10-18T02:26:15.032Z,87.29
2022-10-18T02:28:41.916Z,87.55
2022-10-18T02:31:32.773Z,87.63
2022-10-18T02:34:06.894Z,87.71
2022-10-18T02:36:37.800Z,87.77
2022-10-18T02:39:11.328Z,87.97
2022-10-18T02:41:38.000Z,88.21
2022-10-18T02:44:04.555Z,87.95
2022-10-18T02:46:30.952Z,88.03
2022-10-18T02:48:57.379Z,87.70
2022-10-18T02:51:23.789Z,88.16
2022-10-18T02:53:50.190Z,87.56
2022-10-18T02:56:16.686Z,88.05
2022-10-18T02:58:43.080Z,87.81
2022-10-18T03:01:09.525Z,88.18
2022-10-18T03:03:36.072Z,88.01
2022-10-18T03:06:02.447Z,88.12
2022-10-18T03:08:29.798Z,88.13
2022-10-18T03:10:56.204Z,88.33
2022-10-18T03:13:22.663Z,88.41
2022-10-18T03:15:49.129Z,88.37
2022-10-18T03:18:15.652Z,88.45
2022-10-18T03:20:42.566Z,88.61
2022-10-18T03:23:09.251Z,88.53
2022-10-18T03:25:35.693Z,88.82
2022-10-18T03:28:02.105Z,89.42
2022-10-18T03:30:28.499Z,89.92
2022-10-18T03:32:54.839Z,89.98
2022-10-18T03:35:21.405Z,90.24
2022-10-18T03:37:47.945Z,90.25
2022-10-18T03:40:14.441Z,90.87
2022-10-18T03:42:40.784Z,91.23
2022-10-18T03:45:07.714Z,91.23
2022-10-18T03:47:34.204Z,91.58
2022-10-18T03:50:00.575Z,91.51
2022-10-18T03:52:26.980Z,91.59
2022-10-18T03:54:53.453Z,91.36
2022-10-18T03:57:19.887Z,91.37
2022-10-18T03:59:46.264Z,91.22
2022-10-18T04:02:12.611Z,91.40
2022-10-18T04:04:38.985Z,91.54
2022-10-18T04:07:05.378Z,91.61
2022-10-18T04:09:31.872Z,91.50
2022-10-18T04:11:58.324Z,91.37
2022-10-18T04:14:24.758Z,91.27
2022-10-18T04:16:51.119Z,91.40
2022-10-18T04:19:17.492Z,91.22
2022-10-18T04:21:43.941Z,91.12
2022-10-18T04:24:10.365Z,91.07
2022-10-18T04:26:36.953Z,90.83
2022-10-18T04:29:03.625Z,91.18
2022-10-18T04:31:30.057Z,90.91
2022-10-18T04:33:56.428Z,90.81
2022-10-18T04:36:22.768Z,90.72
2022-10-18T04:38:49.135Z,90.60
2022-10-18T04:41:15.628Z,90.57
2022-10-18T04:43:42.068Z,90.63
2022-10-18T04:46:08.540Z,90.49
2022-10-18T04:48:35.029Z,90.64
2022-10-18T04:51:01.513Z,90.51
2022-10-18T04:53:27.861Z,90.69
2022-10-18T04:55:54.301Z,90.52
2022-10-18T04:58:20.676Z,90.38
2022-10-18T05:00:47.759Z,90.25
2022-10-18T05:03:14.927Z,90.38
2022-10-18T05:06:00.954Z,90.24
2022-10-18T05:08:28.221Z,90.24
2022-10-18T05:10:54.672Z,90.40
2022-10-18T05:13:21.119Z,90.54
2022-10-18T05:15:47.681Z,90.21
2022-10-18T05:18:14.078Z,90.59
2022-10-18T05:20:40.497Z,90.71
2022-10-18T05:23:10.620Z,90.51
2022-10-18T05:25:41.229Z,90.60
2022-10-18T05:28:11.126Z,91.01
2022-10-18T05:30:53.797Z,91.34
2022-10-18T05:33:20.216Z,91.25
2022-10-18T05:35:46.592Z,91.30
2022-10-18T05:38:12.986Z,91.16
2022-10-18T05:40:39.605Z,90.71
2022-10-18T05:43:06.014Z,90.32
2022-10-18T05:45:32.381Z,89.49
2022-10-18T05:47:58.786Z,89.15
2022-10-18T05:50:25.150Z,88.51
2022-10-18T05:52:51.512Z,88.37
2022-10-18T05:55:17.880Z,87.93
2022-10-18T05:57:49.442Z,87.54
2022-10-18T06:00:15.917Z,87.34
2022-10-18T06:02:42.463Z,87.08
2022-10-18T06:05:09.110Z,87.02
2022-10-18T06:07:35.620Z,86.58
2022-10-18T06:10:02.043Z,86.15
2022-10-18T06:12:28.418Z,85.96
2022-10-18T06:14:54.821Z,85.67
2022-10-18T06:17:21.253Z,85.17
2022-10-18T06:19:47.708Z,84.61
2022-10-18T06:22:14.092Z,84.52
2022-10-18T06:24:40.460Z,84.01
2022-10-18T06:27:09.246Z,83.95
2022-10-18T06:29:37.000Z,83.77
2022-10-18T06:32:04.139Z,83.53
2022-10-18T06:34:30.962Z,83.51
2022-10-18T06:36:58.852Z,83.61
2022-10-18T06:39:25.963Z,83.88
2022-10-18T06:41:53.094Z,83.73
2022-10-18T06:44:21.022Z,83.94
2022-10-18T06:46:48.795Z,84.35
2022-10-18T06:49:18.958Z,84.59
2022-10-18T06:51:46.134Z,84.55
2022-10-18T06:54:18.031Z,84.80
2022-10-18T06:56:45.338Z,85.09
2022-10-18T06:59:11.774Z,85.03
2022-10-18T07:01:38.310Z,84.83
2022-10-18T07:04:04.857Z,85.03
2022-10-18T07:06:31.367Z,84.62
2022-10-18T07:08:57.778Z,84.99
2022-10-18T07:11:26.507Z,84.75
2022-10-18T07:14:00.730Z,84.54
2022-10-18T07:16:27.133Z,84.73
2022-10-18T07:18:53.538Z,84.61
2022-10-18T07:21:23.618Z,84.28
2022-10-18T07:23:51.135Z,84.12
2022-10-18T07:26:23.481Z,83.80
2022-10-18T07:28:55.704Z,83.35
2022-10-18T07:31:23.086Z,82.87
2022-10-18T07:33:49.543Z,82.22
2022-10-18T07:36:16.117Z,81.63
2022-10-18T07:38:42.708Z,81.21
2022-10-18T07:41:11.722Z,80.67
2022-10-18T07:43:42.067Z,79.82
2022-10-18T07:46:08.572Z,79.97
2022-10-18T07:48:34.964Z,78.88
2022-10-18T07:51:02.044Z,78.38
2022-10-18T07:53:29.277Z,77.95
2022-10-18T07:56:01.378Z,76.80
2022-10-18T07:58:31.648Z,76.37
2022-10-18T08:01:01.572Z,75.87
2022-10-18T08:03:27.984Z,75.65
2022-10-18T08:05:55.278Z,75.78
2022-10-18T08:08:23.168Z,75.29
2022-10-18T08:10:49.567Z,74.67
2022-10-18T08:13:16.154Z,74.48
2022-10-18T08:15:42.772Z,74.09
2022-10-18T08:18:09.383Z,73.32
2022-10-18T08:20:36.917Z,73.04
2022-10-18T08:23:06.202Z,72.27
2022-10-18T08:25:32.859Z,72.16
2022-10-18T08:27:59.370Z,72.08
2022-10-18T08:30:25.825Z,71.90
2022-10-18T08:32:52.781Z,71.17
2022-10-18T08:35:19.215Z,70.95
2022-10-18T08:37:46.139Z,70.89
2022-10-18T08:40:15.866Z,70.32
2022-10-18T08:43:00.587Z,69.60
2022-10-18T08:45:41.812Z,69.00
2022-10-18T08:48:21.635Z,68.64
2022-10-18T08:50:49.770Z,68.61
2022-10-18T08:53:45.302Z,67.27
2022-10-18T08:56:15.980Z,66.44
2022-10-18T08:58:46.302Z,65.40
2022-10-18T09:01:42.065Z,65.06
2022-10-18T09:04:48.876Z,64.72
2022-10-18T09:07:15.292Z,64.38
2022-10-18T09:10:02.773Z,64.20
2022-10-18T09:12:55.611Z,63.79
2022-10-18T09:15:51.689Z,63.03
2022-10-18T09:18:24.068Z,62.94
2022-10-18T09:21:00.636Z,63.24
2022-10-18T09:23:47.979Z,61.99
2022-10-18T09:26:18.388Z,61.99
2022-10-18T09:29:23.412Z,60.87
2022-10-18T09:32:04.612Z,60.82
2022-10-18T09:34:44.779Z,59.83
2022-10-18T09:37:17.716Z,59.56
2022-10-18T09:39:45.913Z,60.00
2022-10-18T09:42:28.984Z,59.00
2022-10-18T09:45:26.785Z,58.69
2022-10-18T09:48:13.241Z,58.36
2022-10-18T09:50:44.813Z,58.89
2022-10-18T09:53:25.841Z,59.81
2022-10-18T09:55:52.201Z,60.51
2022-10-18T09:58:20.440Z,60.47
2022-10-18T10:00:50.860Z,60.54
2022-10-18T10:03:17.290Z,60.40
2022-10-18T10:05:44.506Z,60.88
2022-10-18T10:08:11.581Z,60.40
2022-10-18T10:10:46.891Z,59.41
2022-10-18T10:13:22.766Z,58.48
2022-10-18T10:15:54.301Z,57.27
2022-10-18T10:18:29.798Z,56.90
2022-10-18T10:21:00.196Z,57.37
2022-10-18T10:23:30.656Z,57.46
2022-10-18T10:26:03.834Z,56.99
2022-10-18T10:28:35.064Z,57.50
2022-10-18T10:31:29.446Z,57.77
2022-10-18T10:34:28.858Z,58.47
2022-10-18T10:36:55.384Z,58.70
2022-10-18T10:39:24.422Z,59.31
2022-10-18T10:41:56.612Z,60.01
2022-10-18T10:44:32.086Z,60.17
2022-10-18T10:46:59.297Z,61.06
2022-10-18T10:49:45.247Z,61.44
2022-10-18T10:52:28.524Z,62.15
2022-10-18T10:55:33.703Z,62.32
2022-10-18T10:57:47.444Z,62.68
2022-10-18T11:00:43.617Z,62.49
2022-10-18T11:03:28.113Z,62.84
2022-10-18T11:05:57.599Z,63.28
2022-10-18T11:08:40.952Z,63.85
2022-10-18T11:11:22.222Z,63.37
2022-10-18T11:14:07.278Z,63.37
2022-10-18T11:16:56.931Z,63.39
2022-10-18T11:19:39.056Z,63.30
2022-10-18T11:22:12.273Z,62.39
2022-10-18T11:24:39.476Z,61.31
2022-10-18T11:27:14.913Z,60.48
2022-10-18T11:29:54.283Z,59.87
2022-10-18T11:32:48.396Z,59.06
2022-10-18T11:35:29.452Z,58.51
2022-10-18T11:38:04.308Z,57.97
2022-10-18T11:40:49.641Z,57.91
2022-10-18T11:44:01.724Z,58.36
2022-10-18T11:46:38.422Z,58.33
2022-10-18T11:49:23.206Z,58.98
2022-10-18T11:52:09.171Z,59.08
2022-10-18T11:55:05.131Z,59.77
2022-10-18T11:57:50.600Z,60.74
2022-10-18T12:00:19.865Z,60.89
2022-10-18T12:03:21.022Z,61.40
2022-10-18T12:05:49.966Z,60.30
2022-10-18T12:08:23.330Z,58.45
2022-10-18T12:11:04.441Z,57.31
2022-10-18T12:13:38.945Z,55.57
2022-10-18T12:16:07.892Z,55.03
2022-10-18T12:18:41.712Z,54.82
2022-10-18T12:21:08.227Z,54.05
2022-10-18T12:24:18.266Z,53.70
2022-10-18T12:26:48.513Z,53.09
2022-10-18T12:29:35.207Z,52.80
2022-10-18T12:32:14.481Z,52.09
2022-10-18T12:34:49.110Z,51.29
2022-10-18T12:37:24.685Z,50.57
2022-10-18T12:40:14.539Z,50.79
2022-10-18T12:42:49.302Z,49.48
2022-10-18T12:45:34.910Z,50.27
2022-10-18T12:48:08.269Z,50.05
2022-10-18T12:50:41.198Z,50.87
2022-10-18T12:53:10.366Z,50.57
2022-10-18T12:55:44.985Z,49.55
2022-10-18T12:58:14.133Z,49.04
2022-10-18T13:00:43.488Z,49.29
2022-10-18T13:03:10.072Z,49.56
2022-10-18T13:05:53.268Z,49.88
2022-10-18T13:08:38.082Z,51.48
2022-10-18T13:11:10.652Z,51.89
2022-10-18T13:13:41.662Z,52.98
2022-10-18T13:16:22.983Z,53.44
2022-10-18T13:19:00.367Z,53.05
2022-10-18T13:21:47.240Z,53.10
2022-10-18T13:24:55.223Z,53.93
2022-10-18T13:27:42.625Z,55.10
2022-10-18T13:30:18.391Z,56.78
2022-10-18T13:33:20.128Z,57.73
2022-10-18T13:35:55.507Z,58.54
2022-10-18T13:38:34.055Z,59.21
2022-10-18T13:41:06.899Z,59.29
2022-10-18T13:43:52.643Z,58.99
2022-10-18T13:46:19.737Z,58.94
2022-10-18T13:48:50.239Z,57.50
2022-10-18T13:51:38.323Z,57.37
2022-10-18T13:54:46.625Z,56.91
2022-10-18T13:57:47.297Z,54.58
2022-10-18T14:00:48.899Z,52.62
2022-10-18T14:04:02.223Z,51.58
2022-10-18T14:06:36.090Z,52.50
2022-10-18T14:09:25.530Z,53.30
2022-10-18T14:12:28.378Z,55.39
2022-10-18T14:15:18.151Z,56.29
2022-10-18T14:17:49.086Z,57.45
2022-10-18T14:20:27.350Z,58.06
2022-10-18T14:23:11.037Z,59.39
2022-10-18T14:25:38.561Z,60.01
2022-10-18T14:28:21.636Z,60.58
2022-10-18T14:30:56.277Z,60.67
2022-10-18T14:33:26.545Z,60.88
2022-10-18T14:36:19.208Z,60.82
2022-10-18T14:38:54.379Z,60.87
2022-10-18T14:41:34.884Z,60.79
2022-10-18T14:44:18.380Z,59.04
2022-10-18T14:46:58.129Z,57.65
2022-10-18T14:49:24.603Z,57.15
2022-10-18T14:51:58.280Z,56.29
2022-10-18T14:54:31.951Z,55.61
2022-10-18T14:57:00.853Z,56.73
2022-10-18T14:59:30.652Z,56.05
2022-10-18T15:02:01.116Z,53.49
2022-10-18T15:04:32.818Z,49.54
2022-10-18T15:07:01.371Z,44.08
2022-10-18T15:12:02.048Z,44.50
2022-10-18T15:14:30.173Z,48.66
2022-10-18T15:17:03.017Z,52.79
2022-10-18T15:19:35.434Z,55.59
2022-10-18T15:25:20.943Z,59.97
2022-10-18T15:27:53.272Z,61.74
2022-10-18T15:30:24.807Z,63.33
2022-10-18T15:32:57.478Z,64.37
2022-10-18T15:35:35.530Z,64.16
2022-10-18T15:38:17.290Z,65.16
2022-10-18T15:40:44.106Z,65.97
2022-10-18T15:43:22.645Z,67.08
2022-10-18T15:45:51.298Z,67.81
2022-10-18T15:48:25.076Z,68.77
2022-10-18T15:50:56.544Z,69.34
2022-10-18T15:53:23.557Z,69.58
2022-10-18T15:55:52.482Z,70.23
2022-10-18T15:58:23.220Z,70.83
2022-10-18T16:00:50.733Z,70.33
2022-10-18T16:03:19.266Z,67.16
2022-10-18T16:05:45.786Z,65.88
2022-10-18T16:08:23.446Z,66.31
2022-10-18T16:10:50.125Z,67.49
2022-10-18T16:13:17.500Z,68.51
2022-10-18T16:15:44.003Z,69.37
2022-10-18T16:18:17.016Z,70.22
2022-10-18T16:20:44.301Z,70.76
2022-10-18T16:23:29.304Z,72.04
2022-10-18T16:25:57.240Z,72.59
2022-10-18T16:28:25.699Z,73.07
2022-10-18T16:31:00.925Z,73.55
2022-10-18T16:33:27.365Z,74.21
2022-10-18T16:35:54.173Z,74.84
2022-10-18T16:38:35.481Z,75.04
2022-10-18T16:41:04.063Z,75.81
2022-10-18T16:43:31.367Z,76.19
2022-10-18T16:45:57.970Z,76.74
2022-10-18T16:48:25.348Z,77.09
2022-10-18T16:50:54.829Z,77.21
2022-10-18T16:53:25.058Z,77.33
2022-10-18T16:55:57.101Z,78.04
2022-10-18T17:00:56.144Z,77.95
2022-10-18T17:03:22.946Z,78.15
2022-10-18T17:05:49.388Z,78.35
2022-10-18T17:08:24.053Z,78.54
2022-10-18T17:10:54.857Z,78.73
2022-10-18T17:13:22.562Z,79.07
2022-10-18T17:15:50.362Z,79.55
2022-10-18T17:18:23.403Z,79.65
2022-10-18T17:20:50.221Z,79.86
2022-10-18T17:23:16.694Z,79.82
2022-10-18T17:25:58.948Z,80.14
2022-10-18T17:28:33.661Z,80.49
2022-10-18T17:31:00.096Z,80.66
2022-10-18T17:33:26.591Z,80.97
2022-10-18T17:35:53.007Z,80.94
2022-10-18T17:38:19.371Z,81.32
2022-10-18T17:40:46.272Z,81.41
2022-10-18T17:43:13.612Z,81.69
2022-10-18T17:45:51.004Z,81.70
2022-10-18T17:48:17.640Z,81.94
2022-10-18T17:50:43.989Z,82.15
2022-10-18T17:53:12.845Z,82.16
2022-10-18T17:55:39.702Z,82.48
2022-10-18T17:58:06.202Z,82.87
2022-10-18T18:00:32.757Z,83.08
2022-10-18T18:03:00.241Z,82.99
2022-10-18T18:05:31.374Z,83.17
2022-10-18T18:08:02.766Z,83.46
2022-10-18T18:10:32.871Z,83.35
2022-10-18T18:12:59.241Z,83.86
2022-10-18T18:15:25.804Z,84.32
2022-10-18T18:17:57.056Z,84.67
2022-10-18T18:20:24.341Z,84.84
2022-10-18T18:22:51.794Z,85.11
2022-10-18T18:25:18.422Z,85.67
2022-10-18T18:27:44.789Z,85.50
2022-10-18T18:30:11.447Z,85.67
2022-10-18T18:32:39.523Z,85.84
2022-10-18T18:35:06.153Z,85.77
2022-10-18T18:37:32.682Z,85.67
2022-10-18T18:39:59.047Z,85.97
2022-10-18T18:42:25.435Z,86.12
2022-10-18T18:44:51.778Z,86.31
2022-10-18T18:47:21.216Z,85.98
2022-10-18T18:49:47.638Z,85.85
2022-10-18T18:52:14.008Z,85.77
2022-10-18T18:54:40.404Z,85.45
2022-10-18T18:57:06.772Z,85.39
2022-10-18T18:59:33.236Z,85.49
2022-10-18T19:01:59.966Z,85.44
2022-10-18T19:04:26.428Z,85.23
2022-10-18T19:06:52.891Z,85.16
2022-10-18T19:09:21.769Z,85.17
2022-10-18T19:11:52.741Z,84.96
2022-10-18T19:16:54.268Z,85.00
2022-10-18T19:19:23.420Z,84.93
2022-10-18T19:21:52.213Z,84.81
2022-10-18T19:24:19.876Z,85.20
2022-10-18T19:26:50.416Z,85.12
2022-10-18T19:29:30.636Z,85.37
2022-10-18T19:31:59.720Z,85.36
2022-10-18T19:34:28.531Z,85.47
2022-10-18T19:36:55.481Z,85.47
2022-10-18T19:39:30.319Z,85.39
2022-10-18T19:41:58.829Z,85.49
2022-10-18T19:44:28.798Z,85.71
2022-10-18T19:46:55.464Z,85.90
2022-10-18T19:49:21.972Z,85.72
2022-10-18T19:51:48.463Z,86.02
2022-10-18T19:54:15.990Z,86.04
2022-10-18T19:56:43.029Z,86.41
2022-10-18T19:59:11.042Z,86.54
2022-10-18T20:01:37.591Z,86.56
2022-10-18T20:04:04.829Z,86.46
2022-10-18T20:06:31.865Z,86.69
2022-10-18T20:08:58.430Z,86.95
2022-10-18T20:11:27.125Z,86.94
2022-10-18T20:13:54.143Z,87.12
2022-10-18T20:16:27.833Z,87.47
2022-10-18T20:18:59.602Z,87.40
2022-10-18T20:21:27.337Z,87.63
2022-10-18T20:23:54.398Z,87.40
2022-10-18T20:26:21.628Z,87.62
2022-10-18T20:28:55.821Z,87.73
2022-10-18T20:31:35.422Z,87.61
2022-10-18T20:34:04.704Z,87.39
2022-10-18T20:36:32.557Z,87.48
2022-10-18T20:38:59.645Z,87.52
2022-10-18T20:41:35.950Z,87.46
2022-10-18T20:44:05.203Z,87.41
2022-10-18T20:46:34.057Z,87.38
2022-10-18T20:49:01.078Z,87.43
2022-10-18T20:51:27.840Z,87.23
2022-10-18T20:53:54.636Z,87.46
2022-10-18T20:56:23.950Z,87.34
2022-10-18T20:58:52.008Z,86.93
2022-10-18T21:01:24.082Z,87.29
2022-10-18T21:03:52.253Z,87.50
2022-10-18T21:06:28.189Z,87.46
2022-10-18T21:09:05.560Z,87.37
2022-10-18T21:11:36.355Z,87.46
2022-10-18T21:14:06.937Z,87.42
2022-10-18T21:16:35.654Z,87.59
2022-10-18T21:19:06.367Z,87.44
2022-10-18T21:21:33.051Z,87.23
2022-10-18T21:24:02.501Z,87.03
2022-10-18T21:26:32.014Z,86.80
2022-10-18T21:28:59.124Z,86.49
2022-10-18T21:31:28.394Z,86.39
2022-10-18T21:33:57.323Z,86.51
2022-10-18T21:36:24.644Z,86.85
2022-10-18T21:38:52.085Z,86.79
2022-10-18T21:41:20.928Z,86.86
2022-10-18T21:43:49.746Z,86.89
2022-10-18T21:46:18.497Z,86.96
2022-10-18T21:48:49.980Z,86.90
2022-10-18T21:51:18.684Z,86.75
2022-10-18T21:53:46.902Z,86.88
2022-10-18T21:56:15.838Z,86.45
2022-10-18T21:58:43.010Z,86.70
2022-10-18T22:01:15.021Z,86.96
2022-10-18T22:03:42.264Z,86.98
2022-10-18T22:06:14.030Z,87.16
2022-10-18T22:08:42.635Z,87.34
2022-10-18T22:11:09.809Z,87.55
2022-10-18T22:13:36.250Z,87.69
2022-10-18T22:16:04.353Z,88.01
2022-10-18T22:18:32.175Z,88.41
2022-10-18T22:21:01.463Z,88.24
2022-10-18T22:23:32.943Z,88.51
2022-10-18T22:26:08.948Z,88.56
2022-10-18T22:28:36.053Z,88.74
2022-10-18T22:31:02.798Z,88.80
2022-10-18T22:33:29.668Z,88.88
2022-10-18T22:35:56.215Z,88.58
2022-10-18T22:38:22.795Z,88.91
2022-10-18T22:40:49.240Z,89.28
2022-10-18T22:43:15.585Z,89.58
2022-10-18T22:45:42.102Z,89.86
2022-10-18T22:48:08.458Z,90.01
2022-10-18T22:50:34.833Z,89.63
2022-10-18T22:53:01.199Z,89.23
2022-10-18T22:55:27.552Z,89.19
2022-10-18T22:57:55.453Z,89.00
2022-10-18T23:00:21.852Z,88.83
2022-10-18T23:02:51.491Z,88.58
2022-10-18T23:05:17.974Z,88.24
2022-10-18T23:07:49.078Z,87.80
2022-10-18T23:10:15.789Z,87.48
2022-10-18T23:12:42.370Z,87.16
2022-10-18T23:15:09.274Z,86.63
2022-10-18T23:17:36.129Z,86.71
2022-10-18T23:20:03.251Z,86.67
2022-10-18T23:22:29.657Z,86.74
2022-10-18T23:24:56.038Z,86.61
2022-10-18T23:27:22.446Z,86.72
2022-10-18T23:29:48.805Z,86.86
2022-10-18T23:32:15.157Z,86.83
2022-10-18T23:34:41.501Z,87.28
2022-10-18T23:37:07.885Z,87.13
2022-10-18T23:39:34.255Z,86.94
2022-10-18T23:42:00.673Z,86.56
2022-10-18T23:44:27.029Z,86.74
2022-10-18T23:46:53.402Z,86.18
2022-10-18T23:49:19.781Z,86.13
2022-10-18T23:51:46.170Z,86.08
2022-10-18T23:54:12.646Z,86.06
2022-10-18T23:56:38.997Z,86.25
2022-10-18T23:59:05.337Z,86.33
